createdAt,value
2018-12-02T00:00:20.020Z,1.87
2018-12-02T00:02:48.050Z,2.20
2018-12-02T00:05:16.015Z,2.07
2018-12-02T00:07:44.132Z,1.93
2018-12-02T00:10:12.644Z,2.37
2018-12-02T00:12:40.706Z,1.67
2018-12-02T00:15:13.278Z,2.00
2018-12-02T00:17:41.262Z,1.90
2018-12-02T00:20:09.855Z,2.07
2018-12-02T00:22:38.154Z,1.90
2018-12-02T00:25:06.886Z,1.87
2018-12-02T00:27:34.863Z,2.00
2018-12-02T00:30:03.257Z,2.00
2018-12-02T00:32:31.315Z,1.90
2018-12-02T00:34:59.406Z,1.80
2018-12-02T00:37:27.470Z,1.90
2018-12-02T00:39:55.562Z,2.13
2018-12-02T00:42:23.610Z,1.80
2018-12-02T00:44:51.758Z,1.70
2018-12-02T00:47:19.796Z,1.83
2018-12-02T00:49:47.944Z,2.43
2018-12-02T00:52:16.038Z,1.90
2018-12-02T00:54:44.071Z,1.70
2018-12-02T00:57:12.071Z,1.63
2018-12-02T00:59:40.444Z,1.70
2018-12-02T01:02:10.466Z,1.80
2018-12-02T01:04:39.075Z,1.87
2018-12-02T01:07:07.065Z,1.57
2018-12-02T01:09:35.044Z,2.10
2018-12-02T01:12:03.006Z,1.87
2018-12-02T01:14:31.060Z,1.90
2018-12-02T01:16:59.045Z,1.97
2018-12-02T01:19:27.046Z,1.70
2018-12-02T01:21:55.082Z,2.37
2018-12-02T01:24:23.094Z,1.73
2018-12-02T01:26:51.105Z,1.90
2018-12-02T01:29:19.099Z,1.90
2018-12-02T01:31:47.063Z,1.70
2018-12-02T01:34:15.027Z,1.70
2018-12-02T01:36:43.118Z,1.50
2018-12-02T01:39:11.095Z,2.00
2018-12-02T01:41:39.111Z,1.50
2018-12-02T01:44:07.126Z,1.50
2018-12-02T01:46:35.096Z,1.80
2018-12-02T01:49:03.086Z,1.70
2018-12-02T01:51:31.080Z,1.47
2018-12-02T01:53:59.024Z,1.60
2018-12-02T01:56:27.006Z,1.60
2018-12-02T01:58:55.296Z,1.70
2018-12-02T02:01:23.316Z,1.60
2018-12-02T02:03:51.283Z,1.53
2018-12-02T02:06:19.283Z,1.50
2018-12-02T02:08:47.307Z,1.63
2018-12-02T02:11:15.276Z,1.90
2018-12-02T02:13:43.264Z,1.40
2018-12-02T02:16:11.276Z,1.50
2018-12-02T02:18:39.251Z,1.23
2018-12-02T02:21:07.279Z,1.83
2018-12-02T02:23:35.258Z,1.27
2018-12-02T02:26:03.238Z,1.43
2018-12-02T02:28:31.227Z,1.40
2018-12-02T02:30:59.288Z,1.53
2018-12-02T02:33:27.263Z,1.40
2018-12-02T02:35:55.332Z,1.30
2018-12-02T02:38:23.295Z,1.53
2018-12-02T02:40:51.332Z,1.23
2018-12-02T02:43:19.371Z,1.10
2018-12-02T02:45:47.479Z,1.20
2018-12-02T02:48:15.485Z,1.20
2018-12-02T02:50:43.717Z,1.30
2018-12-02T02:53:11.708Z,1.00
2018-12-02T02:55:39.687Z,1.13
2018-12-02T02:58:07.980Z,1.00
2018-12-02T03:00:35.950Z,0.90
2018-12-02T03:03:03.909Z,0.90
2018-12-02T03:05:32.403Z,0.90
2018-12-02T03:08:00.365Z,0.90
2018-12-02T03:10:28.320Z,1.10
2018-12-02T03:12:57.301Z,1.03
2018-12-02T03:15:25.265Z,0.90
2018-12-02T03:17:53.269Z,0.90
2018-12-02T03:20:21.691Z,1.00
2018-12-02T03:22:50.975Z,0.83
2018-12-02T03:25:19.343Z,0.90
2018-12-02T03:27:47.434Z,1.27
2018-12-02T03:30:18.682Z,1.10
2018-12-02T03:32:46.703Z,0.80
2018-12-02T03:35:16.182Z,0.77
2018-12-02T03:37:44.097Z,1.00
2018-12-02T03:40:14.503Z,0.90
2018-12-02T03:42:42.503Z,0.80
2018-12-02T03:45:10.983Z,0.70
2018-12-02T03:47:39.101Z,0.70
2018-12-02T03:50:08.274Z,0.70
2018-12-02T03:52:36.264Z,0.70
2018-12-02T03:55:05.056Z,0.73
2018-12-02T03:57:33.015Z,0.70
2018-12-02T04:00:00.989Z,0.70
2018-12-02T04:02:29.023Z,0.90
2018-12-02T04:04:56.994Z,0.80
2018-12-02T04:07:24.982Z,0.90
2018-12-02T04:09:52.971Z,0.97
2018-12-02T04:12:20.924Z,0.93
2018-12-02T04:14:48.979Z,0.90
2018-12-02T04:17:17.272Z,1.10
2018-12-02T04:19:45.314Z,1.20
2018-12-02T04:22:13.315Z,0.90
2018-12-02T04:24:41.484Z,0.97
2018-12-02T04:27:09.467Z,1.30
2018-12-02T04:29:37.452Z,0.77
2018-12-02T04:32:05.560Z,1.00
2018-12-02T04:34:33.539Z,0.90
2018-12-02T04:37:01.491Z,0.70
2018-12-02T04:39:29.468Z,0.80
2018-12-02T04:41:57.465Z,0.80
2018-12-02T04:44:25.441Z,0.87
2018-12-02T04:46:53.421Z,1.17
2018-12-02T04:49:21.398Z,1.00
2018-12-02T04:51:49.391Z,0.73
2018-12-02T04:54:17.994Z,0.80
2018-12-02T04:56:45.963Z,0.70
2018-12-02T04:59:13.916Z,0.80
2018-12-02T05:01:41.910Z,0.70
2018-12-02T05:04:09.900Z,0.70
2018-12-02T05:06:37.960Z,0.80
2018-12-02T05:09:06.742Z,1.00
2018-12-02T05:11:34.802Z,0.87
2018-12-02T05:14:02.972Z,0.90
2018-12-02T05:16:31.009Z,0.70
2018-12-02T05:18:59.030Z,0.67
2018-12-02T05:21:27.012Z,0.90
2018-12-02T05:24:04.874Z,0.67
2018-12-02T05:26:32.900Z,0.60
2018-12-02T05:29:00.902Z,0.93
2018-12-02T05:31:28.972Z,0.93
2018-12-02T05:33:56.967Z,0.80
2018-12-02T05:36:24.971Z,0.87
2018-12-02T05:38:52.992Z,1.00
2018-12-02T05:41:20.982Z,0.63
2018-12-02T05:43:48.995Z,0.60
2018-12-02T05:46:17.054Z,0.70
2018-12-02T05:48:45.092Z,0.53
2018-12-02T05:51:13.162Z,0.63
2018-12-02T05:53:41.212Z,0.70
2018-12-02T05:56:09.224Z,0.80
2018-12-02T05:58:37.239Z,0.60
2018-12-02T06:01:05.270Z,0.63
2018-12-02T06:03:33.303Z,0.70
2018-12-02T06:06:01.327Z,0.60
2018-12-02T06:08:29.385Z,0.70
2018-12-02T06:10:57.399Z,0.67
2018-12-02T06:13:25.424Z,0.70
2018-12-02T06:15:53.475Z,0.67
2018-12-02T06:18:21.500Z,0.67
2018-12-02T06:20:49.568Z,0.87
2018-12-02T06:23:17.594Z,0.90
2018-12-02T06:25:46.586Z,0.93
2018-12-02T06:28:13.637Z,0.87
2018-12-02T06:30:41.668Z,0.90
2018-12-02T06:33:09.715Z,1.00
2018-12-02T06:35:37.754Z,0.90
2018-12-02T06:38:06.399Z,1.00
2018-12-02T06:40:34.397Z,0.80
2018-12-02T06:45:49.052Z,0.90
2018-12-02T06:48:17.123Z,0.80
2018-12-02T06:50:45.201Z,0.90
2018-12-02T06:53:14.259Z,0.70
2018-12-02T06:55:45.277Z,0.90
2018-12-02T06:58:17.467Z,0.70
2018-12-02T07:00:49.606Z,0.80
2018-12-02T07:03:27.250Z,0.80
2018-12-02T07:05:55.320Z,0.90
2018-12-02T07:08:23.342Z,0.80
2018-12-02T07:10:51.407Z,0.70
2018-12-02T07:13:19.431Z,0.80
2018-12-02T07:15:47.444Z,0.80
2018-12-02T07:18:16.415Z,0.90
2018-12-02T07:20:48.814Z,1.00
2018-12-02T07:23:17.969Z,1.00
2018-12-02T07:25:46.679Z,0.90
2018-12-02T07:28:14.711Z,0.90
2018-12-02T07:30:42.911Z,0.90
2018-12-02T07:33:10.987Z,1.07
2018-12-02T07:35:39.045Z,0.87
2018-12-02T07:38:09.064Z,1.00
2018-12-02T07:40:41.082Z,1.00
2018-12-02T07:43:09.716Z,1.10
2018-12-02T07:45:37.791Z,1.00
2018-12-02T07:48:05.804Z,1.00
2018-12-02T07:50:33.943Z,0.80
2018-12-02T07:53:01.999Z,1.20
2018-12-02T07:55:30.030Z,1.27
2018-12-02T07:57:58.074Z,1.10
2018-12-02T08:00:26.145Z,1.10
2018-12-02T08:02:54.191Z,0.80
2018-12-02T08:05:22.521Z,1.40
2018-12-02T08:07:50.767Z,0.83
2018-12-02T08:10:19.034Z,0.87
2018-12-02T08:12:47.203Z,0.90
2018-12-02T08:15:15.831Z,0.90
2018-12-02T08:17:43.898Z,0.93
2018-12-02T08:20:12.383Z,1.00
2018-12-02T08:22:41.699Z,0.90
2018-12-02T08:25:12.821Z,1.00
2018-12-02T08:27:40.938Z,1.13
2018-12-02T08:30:10.049Z,0.93
2018-12-02T08:32:38.258Z,1.10
2018-12-02T08:35:06.826Z,1.20
2018-12-02T08:37:35.011Z,1.60
2018-12-02T08:40:03.215Z,1.20
2018-12-02T08:42:31.275Z,1.83
2018-12-02T08:45:01.099Z,0.87
2018-12-02T08:47:29.146Z,1.47
2018-12-02T08:49:57.218Z,1.43
2018-12-02T08:52:25.264Z,1.43
2018-12-02T08:54:53.371Z,1.10
2018-12-02T08:57:21.497Z,1.50
2018-12-02T08:59:49.549Z,3.07
2018-12-02T09:02:17.620Z,4.83
2018-12-02T09:04:46.749Z,4.30
2018-12-02T09:07:14.873Z,1.30
2018-12-02T09:09:42.915Z,1.33
2018-12-02T09:12:10.963Z,1.20
2018-12-02T09:14:39.043Z,1.80
2018-12-02T09:17:07.111Z,2.10
2018-12-02T09:19:36.186Z,2.70
2018-12-02T09:22:04.231Z,4.00
2018-12-02T09:24:32.339Z,4.20
2018-12-02T09:27:00.438Z,3.03
2018-12-02T09:29:28.488Z,2.30
2018-12-02T09:31:56.639Z,3.93
2018-12-02T09:34:24.732Z,4.60
2018-12-02T09:36:57.855Z,3.40
2018-12-02T09:39:20.844Z,2.80
2018-12-02T09:41:48.882Z,2.90
2018-12-02T09:44:16.956Z,3.17
2018-12-02T09:46:45.019Z,3.53
2018-12-02T09:49:13.068Z,3.50
2018-12-02T09:51:41.155Z,3.60
2018-12-02T09:54:09.286Z,4.30
2018-12-02T09:56:37.404Z,4.40
2018-12-02T09:59:05.471Z,3.57
2018-12-02T10:01:33.524Z,3.03
2018-12-02T10:04:01.615Z,3.53
2018-12-02T10:06:29.672Z,4.60
2018-12-02T10:08:57.731Z,4.90
2018-12-02T10:11:25.786Z,3.60
2018-12-02T10:13:54.823Z,4.20
2018-12-02T10:16:22.892Z,3.43
2018-12-02T10:18:50.898Z,4.40
2018-12-02T10:21:18.959Z,4.57
2018-12-02T10:23:47.056Z,4.47
2018-12-02T10:26:15.388Z,5.67
2018-12-02T10:28:44.626Z,4.93
2018-12-02T10:31:12.686Z,4.50
2018-12-02T10:33:40.768Z,4.93
2018-12-02T10:36:08.955Z,4.20
2018-12-02T10:38:37.256Z,3.60
2018-12-02T10:41:05.475Z,4.50
2018-12-02T10:43:33.563Z,4.47
2018-12-02T10:46:01.714Z,3.17
2018-12-02T10:48:29.810Z,2.87
2018-12-02T10:50:58.927Z,3.30
2018-12-02T10:53:27.071Z,3.00
2018-12-02T10:55:55.703Z,3.40
2018-12-02T10:58:24.307Z,3.73
2018-12-02T11:00:58.496Z,4.97
2018-12-02T11:03:26.580Z,5.93
2018-12-02T11:05:54.624Z,4.87
2018-12-02T11:08:22.712Z,3.90
2018-12-02T11:10:50.990Z,3.90
2018-12-02T11:13:19.056Z,4.60
2018-12-02T11:15:47.131Z,6.70
2018-12-02T11:18:15.264Z,6.43
2018-12-02T11:20:44.495Z,4.70
2018-12-02T11:23:12.624Z,5.80
2018-12-02T11:25:40.745Z,7.20
2018-12-02T11:28:09.087Z,7.27
2018-12-02T11:30:37.376Z,8.90
2018-12-02T11:33:05.651Z,8.97
2018-12-02T11:35:34.955Z,9.47
2018-12-02T11:38:03.064Z,8.40
2018-12-02T11:40:32.184Z,8.60
2018-12-02T11:43:00.357Z,8.87
2018-12-02T11:45:28.480Z,11.00
2018-12-02T11:47:56.589Z,12.00
2018-12-02T11:50:25.135Z,9.17
2018-12-02T11:52:53.233Z,9.37
2018-12-02T11:55:21.668Z,9.30
2018-12-02T11:57:49.796Z,9.47
2018-12-02T12:00:19.295Z,8.87
2018-12-02T12:02:47.384Z,10.27
2018-12-02T12:05:15.469Z,10.43
2018-12-02T12:07:43.889Z,10.60
2018-12-02T12:10:13.408Z,11.20
2018-12-02T12:12:42.573Z,11.70
2018-12-02T12:15:12.261Z,11.70
2018-12-02T12:17:40.328Z,12.27
2018-12-02T12:20:15.096Z,11.60
2018-12-02T12:22:43.246Z,11.90
2018-12-02T12:25:11.380Z,12.13
2018-12-02T12:27:40.460Z,11.70
2018-12-02T12:30:11.041Z,13.07
2018-12-02T12:32:39.127Z,12.80
2018-12-02T12:35:08.038Z,12.33
2018-12-02T12:37:36.173Z,13.40
2018-12-02T12:40:06.012Z,14.67
2018-12-02T12:42:34.081Z,14.37
2018-12-02T12:45:02.154Z,15.23
2018-12-02T12:47:30.227Z,14.90
2018-12-02T12:49:58.441Z,16.13
2018-12-02T12:52:26.484Z,16.93
2018-12-02T12:54:54.548Z,19.03
2018-12-02T12:57:22.611Z,18.70
2018-12-02T12:59:50.656Z,17.57
2018-12-02T13:02:18.770Z,20.30
2018-12-02T13:04:46.915Z,18.13
2018-12-02T13:07:17.846Z,21.43
2018-12-02T13:09:45.920Z,21.13
2018-12-02T13:12:13.974Z,22.50
2018-12-02T13:14:42.095Z,23.03
2018-12-02T13:17:10.223Z,21.17
2018-12-02T13:19:38.335Z,20.13
2018-12-02T13:22:06.413Z,21.20
2018-12-02T13:24:34.494Z,20.33
2018-12-02T13:27:02.667Z,20.43
2018-12-02T13:29:30.795Z,21.53
2018-12-02T13:31:58.880Z,21.90
2018-12-02T13:34:27.078Z,20.37
2018-12-02T13:36:55.389Z,19.33
2018-12-02T13:39:24.473Z,19.77
2018-12-02T13:41:52.556Z,19.73
2018-12-02T13:44:20.640Z,21.57
2018-12-02T13:46:48.749Z,21.13
2018-12-02T13:49:16.860Z,22.27
2018-12-02T13:51:44.947Z,21.03
2018-12-02T13:54:18.300Z,20.37
2018-12-02T13:56:46.382Z,21.60
2018-12-02T13:59:14.496Z,20.97
2018-12-02T14:01:42.583Z,20.53
2018-12-02T14:04:10.710Z,19.00
2018-12-02T14:06:38.800Z,18.67
2018-12-02T14:09:07.009Z,17.33
2018-12-02T14:11:35.111Z,16.60
2018-12-02T14:14:03.700Z,16.83
2018-12-02T14:16:36.055Z,17.53
2018-12-02T14:19:05.704Z,17.20
2018-12-02T14:21:33.810Z,15.67
2018-12-02T14:24:01.892Z,15.00
2018-12-02T14:26:30.987Z,15.27
2018-12-02T14:29:09.938Z,14.87
2018-12-02T14:31:38.762Z,15.03
2018-12-02T14:34:06.855Z,15.53
2018-12-02T14:36:34.960Z,14.97
2018-12-02T14:39:03.333Z,15.10
2018-12-02T14:41:31.518Z,17.17
2018-12-02T14:43:59.648Z,16.03
2018-12-02T14:46:27.769Z,17.73
2018-12-02T14:48:55.990Z,14.50
2018-12-02T14:51:24.360Z,12.93
2018-12-02T14:53:52.564Z,12.70
2018-12-02T14:56:20.616Z,12.97
2018-12-02T14:58:48.753Z,11.93
2018-12-02T15:01:16.928Z,12.50
2018-12-02T15:03:45.022Z,11.80
2018-12-02T15:06:13.112Z,12.80
2018-12-02T15:11:27.424Z,14.70
2018-12-02T15:13:55.489Z,14.67
2018-12-02T15:16:24.476Z,17.40
2018-12-02T15:18:52.551Z,17.87
2018-12-02T15:23:57.415Z,18.07
2018-12-02T15:26:25.471Z,19.53
2018-12-02T15:28:53.555Z,20.30
2018-12-02T15:31:21.679Z,20.30
2018-12-02T15:33:49.719Z,22.60
2018-12-02T15:36:17.829Z,23.13
2018-12-02T15:38:45.927Z,21.07
2018-12-02T15:41:14.047Z,18.70
2018-12-02T15:43:42.128Z,17.90
2018-12-02T15:46:10.347Z,18.47
2018-12-02T15:48:38.450Z,18.00
2018-12-02T15:51:06.491Z,17.87
2018-12-02T15:53:34.750Z,19.13
2018-12-02T15:56:02.814Z,17.63
2018-12-02T15:58:30.906Z,19.20
2018-12-02T16:00:59.335Z,18.80
2018-12-02T16:03:27.428Z,19.97
2018-12-02T16:05:55.587Z,20.23
2018-12-02T16:08:23.661Z,19.80
2018-12-02T16:10:51.821Z,18.57
2018-12-02T16:13:19.860Z,19.27
2018-12-02T16:15:47.928Z,20.07
2018-12-02T16:18:15.998Z,20.97
2018-12-02T16:20:45.788Z,19.13
2018-12-02T16:23:14.483Z,19.80
2018-12-02T16:25:42.536Z,19.20
2018-12-02T16:28:10.683Z,18.37
2018-12-02T16:30:38.761Z,19.57
2018-12-02T16:33:07.122Z,20.27
2018-12-02T16:35:35.173Z,20.10
2018-12-02T16:38:03.246Z,20.57
2018-12-02T16:40:31.864Z,22.13
2018-12-02T16:42:59.930Z,22.53
2018-12-02T16:45:28.159Z,22.80
2018-12-02T16:47:57.587Z,22.33
2018-12-02T16:50:28.504Z,23.37
2018-12-02T16:52:58.187Z,20.57
2018-12-02T16:55:27.001Z,21.70
2018-12-02T16:58:01.647Z,25.68
2018-12-02T17:00:33.587Z,22.87
2018-12-02T17:03:01.718Z,22.17
2018-12-02T17:05:29.772Z,20.83
2018-12-02T17:07:57.877Z,21.23
2018-12-02T17:10:25.995Z,20.17
2018-12-02T17:13:07.528Z,19.90
2018-12-02T17:15:35.579Z,19.07
2018-12-02T17:18:03.669Z,19.03
2018-12-02T17:20:31.723Z,19.10
2018-12-02T17:22:59.801Z,20.13
2018-12-02T17:25:27.880Z,19.67
2018-12-02T17:27:55.963Z,19.87
2018-12-02T17:30:30.051Z,18.90
2018-12-02T17:32:58.136Z,18.13
2018-12-02T17:35:26.200Z,20.40
2018-12-02T17:37:54.286Z,18.17
2018-12-02T17:40:22.820Z,18.13
2018-12-02T17:42:50.862Z,16.20
2018-12-02T17:45:18.944Z,16.27
2018-12-02T17:47:47.073Z,12.93
2018-12-02T17:50:16.064Z,14.07
2018-12-02T17:52:44.763Z,13.73
2018-12-02T17:55:12.799Z,14.33
2018-12-02T17:57:40.867Z,13.80
2018-12-02T18:00:09.880Z,14.43
2018-12-02T18:02:37.943Z,13.87
2018-12-02T18:05:07.956Z,14.10
2018-12-02T18:07:36.012Z,15.53
2018-12-02T18:10:04.950Z,14.10
2018-12-02T18:12:32.995Z,15.07
2018-12-02T18:15:01.084Z,15.27
2018-12-02T18:17:29.132Z,16.30
2018-12-02T18:19:57.169Z,19.70
2018-12-02T18:22:25.223Z,20.03
2018-12-02T18:24:53.416Z,19.97
2018-12-02T18:27:21.443Z,20.63
2018-12-02T18:29:49.519Z,21.40
2018-12-02T18:32:17.595Z,21.33
2018-12-02T18:34:45.693Z,21.27
2018-12-02T18:37:13.784Z,26.35
2018-12-02T18:39:41.864Z,20.63
2018-12-02T18:42:09.947Z,19.47
2018-12-02T18:44:38.001Z,18.80
2018-12-02T18:47:06.156Z,18.10
2018-12-02T18:49:34.200Z,19.13
2018-12-02T18:52:02.245Z,20.03
2018-12-02T18:54:30.299Z,18.53
2018-12-02T18:57:00.375Z,19.50
2018-12-02T18:59:28.497Z,20.07
2018-12-02T19:01:56.545Z,17.70
2018-12-02T19:04:24.641Z,17.40
2018-12-02T19:06:58.415Z,17.03
2018-12-02T19:09:20.835Z,16.00
2018-12-02T19:11:48.898Z,16.73
2018-12-02T19:14:17.041Z,15.30
2018-12-02T19:16:45.111Z,14.50
2018-12-02T19:19:13.240Z,12.83
2018-12-02T19:21:41.394Z,11.93
2018-12-02T19:24:13.199Z,11.07
2018-12-02T19:26:41.486Z,12.20
2018-12-02T19:29:10.947Z,11.77
2018-12-02T19:31:39.153Z,12.97
2018-12-02T19:34:07.567Z,11.30
2018-12-02T19:36:51.491Z,12.37
2018-12-02T19:39:19.820Z,11.70
2018-12-02T19:41:47.916Z,11.90
2018-12-02T19:44:15.971Z,12.80
2018-12-02T19:46:44.082Z,13.07
2018-12-02T19:49:12.183Z,11.43
2018-12-02T19:51:40.274Z,9.93
2018-12-02T19:54:08.328Z,9.60
2018-12-02T19:56:36.408Z,10.60
2018-12-02T19:59:04.481Z,8.53
2018-12-02T20:01:32.513Z,8.60
2018-12-02T20:04:00.617Z,8.40
2018-12-02T20:06:28.664Z,7.50
2018-12-02T20:08:57.821Z,7.47
2018-12-02T20:11:27.046Z,7.30
2018-12-02T20:13:55.163Z,6.60
2018-12-02T20:16:23.320Z,7.33
2018-12-02T20:18:51.301Z,6.50
2018-12-02T20:21:20.228Z,8.30
2018-12-02T20:24:01.170Z,7.33
2018-12-02T20:26:29.278Z,7.20
2018-12-02T20:28:57.687Z,5.90
2018-12-02T20:31:27.149Z,6.07
2018-12-02T20:33:55.244Z,6.20
2018-12-02T20:36:23.361Z,5.40
2018-12-02T20:38:51.719Z,6.00
2018-12-02T20:41:20.094Z,6.83
2018-12-02T20:43:49.282Z,6.50
2018-12-02T20:46:17.416Z,5.73
2018-12-02T20:48:45.544Z,7.50
2018-12-02T20:51:13.591Z,5.97
2018-12-02T20:53:41.664Z,5.80
2018-12-02T20:56:09.737Z,7.62
2018-12-02T20:58:37.850Z,6.63
2018-12-02T21:01:05.949Z,6.67
2018-12-02T21:03:35.234Z,6.63
2018-12-02T21:06:08.459Z,6.30
2018-12-02T21:08:36.801Z,6.50
2018-12-02T21:11:04.952Z,6.30
2018-12-02T21:13:33.028Z,5.97
2018-12-02T21:16:01.146Z,6.47
2018-12-02T21:18:29.308Z,6.23
2018-12-02T21:20:57.382Z,6.67
2018-12-02T21:23:25.608Z,7.03
2018-12-02T21:25:53.648Z,7.03
2018-12-02T21:28:24.195Z,7.70
2018-12-02T21:30:52.295Z,6.20
2018-12-02T21:33:20.430Z,6.27
2018-12-02T21:35:48.709Z,6.37
2018-12-02T21:38:16.867Z,5.90
2018-12-02T21:40:44.979Z,5.83
2018-12-02T21:43:13.527Z,5.97
2018-12-02T21:45:41.588Z,6.10
2018-12-02T21:48:10.591Z,5.30
2018-12-02T21:50:38.854Z,6.67
2018-12-02T21:53:06.995Z,5.70
2018-12-02T21:55:35.020Z,6.10
2018-12-02T21:58:03.211Z,5.93
2018-12-02T22:00:36.714Z,6.83
2018-12-02T22:03:04.941Z,6.40
2018-12-02T22:05:33.235Z,6.30
2018-12-02T22:08:13.634Z,6.13
2018-12-02T22:10:41.691Z,6.03
2018-12-02T22:13:09.739Z,7.20
2018-12-02T22:15:37.984Z,7.53
2018-12-02T22:18:06.162Z,7.97
2018-12-02T22:20:34.335Z,7.93
2018-12-02T22:23:02.374Z,8.03
2018-12-02T22:25:30.483Z,9.33
2018-12-02T22:27:59.291Z,9.87
2018-12-02T22:30:29.519Z,9.80
2018-12-02T22:32:57.575Z,9.90
2018-12-02T22:35:25.667Z,10.13
2018-12-02T22:37:53.695Z,11.60
2018-12-02T22:40:23.454Z,12.30
2018-12-02T22:42:51.992Z,11.87
2018-12-02T22:45:20.748Z,11.93
2018-12-02T22:47:48.819Z,11.70
2018-12-02T22:50:17.453Z,11.13
2018-12-02T22:52:46.898Z,11.73
2018-12-02T22:55:15.048Z,12.93
2018-12-02T22:57:43.057Z,11.90
2018-12-02T23:00:16.892Z,11.13
2018-12-02T23:02:51.366Z,11.60
2018-12-02T23:05:19.459Z,12.07
2018-12-02T23:07:47.503Z,11.17
2018-12-02T23:10:15.606Z,12.40
2018-12-02T23:12:43.679Z,12.60
2018-12-02T23:15:11.679Z,11.90
2018-12-02T23:17:39.717Z,12.00
2018-12-02T23:20:08.794Z,12.77
2018-12-02T23:22:36.795Z,12.80
2018-12-02T23:25:05.458Z,12.63
2018-12-02T23:30:21.211Z,12.73
2018-12-02T23:32:49.245Z,12.53
2018-12-02T23:35:17.227Z,11.73
2018-12-02T23:37:45.214Z,12.47
2018-12-02T23:40:13.884Z,13.90
2018-12-02T23:42:41.883Z,13.83
2018-12-02T23:45:10.436Z,13.57
2018-12-02T23:47:38.459Z,12.97
2018-12-02T23:50:07.879Z,13.47
2018-12-02T23:52:35.895Z,13.77
2018-12-02T23:55:11.031Z,12.10
2018-12-02T23:57:39.123Z,12.27
